createdAt,value
2022-10-23T00:02:02.541Z,17.30
2022-10-23T00:04:30.189Z,17.21
2022-10-23T00:06:57.460Z,17.14
2022-10-23T00:09:25.403Z,17.16
2022-10-23T00:11:53.742Z,17.18
2022-10-23T00:14:24.946Z,17.19
2022-10-23T00:16:52.449Z,17.30
2022-10-23T00:19:19.779Z,17.28
2022-10-23T00:21:47.156Z,17.14
2022-10-23T00:24:14.599Z,17.20
2022-10-23T00:26:42.389Z,17.08
2022-10-23T00:29:10.917Z,17.18
2022-10-23T00:31:39.067Z,17.20
2022-10-23T00:34:08.451Z,17.21
2022-10-23T00:36:36.971Z,17.14
2022-10-23T00:39:05.615Z,17.22
2022-10-23T00:41:32.926Z,17.32
2022-10-23T00:44:09.315Z,17.03
2022-10-23T00:46:39.596Z,17.16
2022-10-23T00:49:09.418Z,17.21
2022-10-23T00:51:47.849Z,17.18
2022-10-23T00:54:24.324Z,17.30
2022-10-23T00:56:58.065Z,17.15
2022-10-23T00:59:27.623Z,17.08
2022-10-23T01:01:55.833Z,17.08
2022-10-23T01:04:26.008Z,17.00
2022-10-23T01:07:32.820Z,17.05
2022-10-23T01:10:26.720Z,17.00
2022-10-23T01:13:34.428Z,17.06
2022-10-23T01:16:26.889Z,17.02
2022-10-23T01:19:20.394Z,16.98
2022-10-23T01:22:02.555Z,16.90
2022-10-23T01:24:52.626Z,16.88
2022-10-23T01:27:39.856Z,16.92
2022-10-23T01:30:19.085Z,16.81
2022-10-23T01:33:37.453Z,16.72
2022-10-23T01:36:13.459Z,16.77
2022-10-23T01:39:10.841Z,16.69
2022-10-23T01:41:58.072Z,16.64
2022-10-23T01:44:57.236Z,16.58
2022-10-23T01:47:31.164Z,16.63
2022-10-23T01:50:00.043Z,16.63
2022-10-23T01:52:27.748Z,16.56
2022-10-23T01:55:00.403Z,16.72
2022-10-23T01:57:32.989Z,16.61
2022-10-23T02:00:12.441Z,16.55
2022-10-23T02:02:42.429Z,16.44
2022-10-23T02:05:29.054Z,16.60
2022-10-23T02:07:57.292Z,16.39
2022-10-23T02:11:00.638Z,16.37
2022-10-23T02:14:01.850Z,16.34
2022-10-23T02:16:53.235Z,16.36
2022-10-23T02:19:56.397Z,16.33
2022-10-23T02:22:30.490Z,16.33
2022-10-23T02:25:20.703Z,16.41
2022-10-23T02:27:54.919Z,16.36
2022-10-23T02:30:22.552Z,16.44
2022-10-23T02:32:54.756Z,16.35
2022-10-23T02:35:24.837Z,16.33
2022-10-23T02:38:00.440Z,16.37
2022-10-23T02:40:43.048Z,16.43
2022-10-23T02:43:29.079Z,16.40
2022-10-23T02:46:50.005Z,16.37
2022-10-23T02:50:23.057Z,16.39
2022-10-23T02:53:22.496Z,16.35
2022-10-23T02:56:57.031Z,16.29
2022-10-23T02:59:43.981Z,16.36
2022-10-23T03:03:09.304Z,16.36
2022-10-23T03:05:41.456Z,16.35
2022-10-23T03:08:11.820Z,16.35
2022-10-23T03:10:40.763Z,16.22
2022-10-23T03:13:10.801Z,16.18
2022-10-23T03:15:38.367Z,16.10
2022-10-23T03:18:05.704Z,16.14
2022-10-23T03:20:32.973Z,16.12
2022-10-23T03:23:00.324Z,16.12
2022-10-23T03:25:28.486Z,16.19
2022-10-23T03:27:55.820Z,16.13
2022-10-23T03:30:24.024Z,16.17
2022-10-23T03:32:51.309Z,16.14
2022-10-23T03:35:18.580Z,16.20
2022-10-23T03:37:45.987Z,16.26
2022-10-23T03:40:13.360Z,16.27
2022-10-23T03:42:40.632Z,16.18
2022-10-23T03:45:08.789Z,16.21
2022-10-23T03:47:41.119Z,16.10
2022-10-23T03:50:10.985Z,16.19
2022-10-23T03:52:38.293Z,16.12
2022-10-23T03:55:07.100Z,16.19
2022-10-23T03:57:34.375Z,16.13
2022-10-23T04:00:01.913Z,16.14
2022-10-23T04:02:29.319Z,16.06
2022-10-23T04:04:56.633Z,16.01
2022-10-23T04:07:24.076Z,16.12
2022-10-23T04:09:52.760Z,16.11
2022-10-23T04:12:20.026Z,16.12
2022-10-23T04:14:47.275Z,16.05
2022-10-23T04:17:14.577Z,16.05
2022-10-23T04:19:41.879Z,16.00
2022-10-23T04:22:09.150Z,16.07
2022-10-23T04:24:36.405Z,16.15
2022-10-23T04:27:04.927Z,16.00
2022-10-23T04:29:32.532Z,15.97
2022-10-23T04:31:59.783Z,15.99
2022-10-23T04:34:27.042Z,15.93
2022-10-23T04:36:54.297Z,15.95
2022-10-23T04:39:21.603Z,15.89
2022-10-23T04:41:48.957Z,15.85
2022-10-23T04:44:16.425Z,15.86
2022-10-23T04:46:43.676Z,15.92
2022-10-23T04:49:10.952Z,15.95
2022-10-23T04:51:38.542Z,15.89
2022-10-23T04:54:05.867Z,15.97
2022-10-23T04:56:33.128Z,15.97
2022-10-23T04:59:00.777Z,15.97
2022-10-23T05:01:28.154Z,15.88
2022-10-23T05:03:56.738Z,15.86
2022-10-23T05:06:24.001Z,15.93
2022-10-23T05:08:51.354Z,15.80
2022-10-23T05:11:18.947Z,15.73
2022-10-23T05:13:46.306Z,15.83
2022-10-23T05:17:09.362Z,15.83
2022-10-23T05:19:51.487Z,15.83
2022-10-23T05:22:24.003Z,15.73
2022-10-23T05:24:51.784Z,15.84
2022-10-23T05:27:19.117Z,15.85
2022-10-23T05:29:46.397Z,15.65
2022-10-23T05:32:16.256Z,15.72
2022-10-23T05:34:43.992Z,15.57
2022-10-23T05:37:16.016Z,15.61
2022-10-23T05:39:43.581Z,15.66
2022-10-23T05:42:10.960Z,15.59
2022-10-23T05:44:38.352Z,15.59
2022-10-23T05:47:06.765Z,15.51
2022-10-23T05:49:34.147Z,15.53
2022-10-23T05:52:01.402Z,15.52
2022-10-23T05:54:28.673Z,15.56
2022-10-23T05:56:56.841Z,15.49
2022-10-23T05:59:24.112Z,15.51
2022-10-23T06:01:51.439Z,15.49
2022-10-23T06:04:18.757Z,15.56
2022-10-23T06:06:47.330Z,15.43
2022-10-23T06:09:16.396Z,15.48
2022-10-23T06:11:44.518Z,15.40
2022-10-23T06:14:11.800Z,15.37
2022-10-23T06:16:39.069Z,15.36
2022-10-23T06:19:10.157Z,15.32
2022-10-23T06:21:39.560Z,15.32
2022-10-23T06:24:08.097Z,15.46
2022-10-23T06:26:35.656Z,15.42
2022-10-23T06:29:03.268Z,15.38
2022-10-23T06:31:30.692Z,15.52
2022-10-23T06:33:59.853Z,15.38
2022-10-23T06:36:27.617Z,15.36
2022-10-23T06:38:56.398Z,15.37
2022-10-23T06:41:23.884Z,15.42
2022-10-23T06:43:51.948Z,15.40
2022-10-23T06:46:20.292Z,15.41
2022-10-23T06:48:48.160Z,15.34
2022-10-23T06:51:17.560Z,15.47
2022-10-23T06:53:46.181Z,15.45
2022-10-23T06:56:13.820Z,15.44
2022-10-23T06:58:42.136Z,15.54
2022-10-23T07:01:14.065Z,15.53
2022-10-23T07:03:41.809Z,15.54
2022-10-23T07:06:11.095Z,15.54
2022-10-23T07:08:38.992Z,15.63
2022-10-23T07:11:10.740Z,15.52
2022-10-23T07:13:40.548Z,15.67
2022-10-23T07:16:21.948Z,15.81
2022-10-23T07:18:59.608Z,15.92
2022-10-23T07:21:35.149Z,15.91
2022-10-23T07:24:04.408Z,15.95
2022-10-23T07:26:32.911Z,16.14
2022-10-23T07:29:00.301Z,16.03
2022-10-23T07:31:28.463Z,16.14
2022-10-23T07:33:55.915Z,16.16
2022-10-23T07:36:23.221Z,16.27
2022-10-23T07:38:52.150Z,16.34
2022-10-23T07:41:19.656Z,16.47
2022-10-23T07:43:46.969Z,16.47
2022-10-23T07:46:14.660Z,16.48
2022-10-23T07:48:41.934Z,16.45
2022-10-23T07:51:15.585Z,16.62
2022-10-23T07:53:43.848Z,16.58
2022-10-23T07:56:18.484Z,16.63
2022-10-23T07:58:45.944Z,16.71
2022-10-23T08:01:50.558Z,16.77
2022-10-23T08:04:21.432Z,16.87
2022-10-23T08:06:49.911Z,16.94
2022-10-23T08:09:17.467Z,17.02
2022-10-23T08:11:44.748Z,17.20
2022-10-23T08:14:14.840Z,17.31
2022-10-23T08:16:42.112Z,17.38
2022-10-23T08:19:10.759Z,17.36
2022-10-23T08:21:38.580Z,17.32
2022-10-23T08:24:06.500Z,17.50
2022-10-23T08:26:33.908Z,17.56
2022-10-23T08:29:01.682Z,17.61
2022-10-23T08:31:28.988Z,17.64
2022-10-23T08:33:56.281Z,17.60
2022-10-23T08:36:29.304Z,17.67
2022-10-23T08:38:58.605Z,17.73
2022-10-23T08:41:42.973Z,17.84
2022-10-23T08:44:57.265Z,17.80
2022-10-23T08:47:44.400Z,17.92
2022-10-23T08:50:42.546Z,17.91
2022-10-23T08:53:52.885Z,17.92
2022-10-23T08:56:38.233Z,17.91
2022-10-23T08:59:33.308Z,17.98
2022-10-23T09:02:29.564Z,17.95
2022-10-23T09:04:58.658Z,17.93
2022-10-23T09:08:25.937Z,18.02
2022-10-23T09:11:35.969Z,18.04
2022-10-23T09:14:50.171Z,18.06
2022-10-23T09:17:29.869Z,18.11
2022-10-23T09:20:31.893Z,18.18
2022-10-23T09:23:24.197Z,18.25
2022-10-23T09:25:57.026Z,18.56
2022-10-23T09:28:33.444Z,18.55
2022-10-23T09:31:12.791Z,18.48
2022-10-23T09:33:40.915Z,18.51
2022-10-23T09:36:23.441Z,18.53
2022-10-23T09:38:55.649Z,18.59
2022-10-23T09:41:39.885Z,18.61
2022-10-23T09:44:33.196Z,18.68
2022-10-23T09:47:12.027Z,18.73
2022-10-23T09:49:56.954Z,18.93
2022-10-23T09:52:36.791Z,19.00
2022-10-23T09:55:24.895Z,19.05
2022-10-23T09:57:53.891Z,18.92
2022-10-23T10:00:27.664Z,19.06
2022-10-23T10:03:22.674Z,19.22
2022-10-23T10:06:04.537Z,19.26
2022-10-23T10:08:51.686Z,19.21
2022-10-23T10:11:47.663Z,19.35
2022-10-23T10:15:22.385Z,19.47
2022-10-23T10:18:29.708Z,19.91
2022-10-23T10:22:04.779Z,20.14
2022-10-23T10:25:26.161Z,20.26
2022-10-23T10:29:19.959Z,20.36
2022-10-23T10:32:34.877Z,20.63
2022-10-23T10:40:02.839Z,21.57
2022-10-23T10:43:39.022Z,21.76
2022-10-23T10:46:55.057Z,22.02
2022-10-23T10:49:40.568Z,22.14
2022-10-23T10:52:43.223Z,22.20
2022-10-23T10:55:38.761Z,22.11
2022-10-23T10:58:45.360Z,21.76
2022-10-23T11:01:53.435Z,21.53
2022-10-23T11:05:14.985Z,21.34
2022-10-23T11:08:07.607Z,21.23
2022-10-23T11:10:46.072Z,21.69
2022-10-23T11:13:42.072Z,22.18
2022-10-23T11:16:31.305Z,22.67
2022-10-23T11:19:57.952Z,22.87
2022-10-23T11:22:57.592Z,23.00
2022-10-23T11:26:46.773Z,23.03
2022-10-23T11:30:20.613Z,23.17
2022-10-23T11:33:53.962Z,23.39
2022-10-23T11:36:58.405Z,23.54
2022-10-23T11:39:33.884Z,23.89
2022-10-23T11:42:29.351Z,23.66
2022-10-23T11:44:56.648Z,23.36
2022-10-23T11:47:40.584Z,23.10
2022-10-23T11:50:07.753Z,22.76
2022-10-23T11:53:14.778Z,22.76
2022-10-23T11:56:12.601Z,22.53
2022-10-23T11:58:56.924Z,22.10
2022-10-23T12:01:52.151Z,22.18
2022-10-23T12:04:30.778Z,22.21
2022-10-23T12:07:05.305Z,21.97
2022-10-23T12:09:47.041Z,21.85
2022-10-23T12:12:40.599Z,21.72
2022-10-23T12:15:18.822Z,21.72
2022-10-23T12:17:49.381Z,21.83
2022-10-23T12:20:49.467Z,21.72
2022-10-23T12:23:55.128Z,21.72
2022-10-23T12:27:04.460Z,21.90
2022-10-23T12:30:04.598Z,21.93
2022-10-23T12:33:23.493Z,21.85
2022-10-23T12:36:44.252Z,21.69
2022-10-23T12:39:38.256Z,21.78
2022-10-23T12:42:28.417Z,21.75
2022-10-23T12:45:11.537Z,21.83
2022-10-23T12:47:39.479Z,22.24
2022-10-23T12:50:27.343Z,22.68
2022-10-23T12:53:07.616Z,22.55
2022-10-23T12:56:07.438Z,22.28
2022-10-23T12:58:35.836Z,22.11
2022-10-23T13:01:07.753Z,22.04
2022-10-23T13:03:38.124Z,22.03
2022-10-23T13:06:05.833Z,22.17
2022-10-23T13:08:46.808Z,22.11
2022-10-23T13:11:20.651Z,22.51
2022-10-23T13:13:49.421Z,22.46
2022-10-23T13:16:24.456Z,22.57
2022-10-23T13:18:53.569Z,22.91
2022-10-23T13:21:28.760Z,23.08
2022-10-23T13:23:56.392Z,23.00
2022-10-23T13:26:45.209Z,23.21
2022-10-23T13:29:29.652Z,23.30
2022-10-23T13:31:57.911Z,23.38
2022-10-23T13:34:30.914Z,23.25
2022-10-23T13:37:21.726Z,23.20
2022-10-23T13:40:21.025Z,23.03
2022-10-23T13:42:54.976Z,22.91
2022-10-23T13:45:27.005Z,22.91
2022-10-23T13:47:54.484Z,22.82
2022-10-23T13:50:21.757Z,22.80
2022-10-23T13:52:49.020Z,22.82
2022-10-23T13:55:25.468Z,22.76
2022-10-23T13:57:52.875Z,22.71
2022-10-23T14:00:20.267Z,22.68
2022-10-23T14:02:47.692Z,22.67
2022-10-23T14:05:15.184Z,22.70
2022-10-23T14:07:42.861Z,22.78
2022-10-23T14:10:10.487Z,22.75
2022-10-23T14:12:44.407Z,22.67
2022-10-23T14:15:12.208Z,22.71
2022-10-23T14:17:39.496Z,22.70
2022-10-23T14:20:08.612Z,22.60
2022-10-23T14:22:36.008Z,22.53
2022-10-23T14:25:03.984Z,22.51
2022-10-23T14:27:31.600Z,22.48
2022-10-23T14:29:59.416Z,22.43
2022-10-23T14:32:26.880Z,22.43
2022-10-23T14:34:57.117Z,22.35
2022-10-23T14:37:24.401Z,22.32
2022-10-23T14:39:51.657Z,22.32
2022-10-23T14:42:19.740Z,22.19
2022-10-23T14:44:49.354Z,22.06
2022-10-23T14:47:21.240Z,22.01
2022-10-23T14:49:53.166Z,21.90
2022-10-23T14:52:20.684Z,21.84
2022-10-23T14:54:48.116Z,21.75
2022-10-23T14:57:17.869Z,21.50
2022-10-23T14:59:45.145Z,21.39
2022-10-23T15:02:12.814Z,21.27
2022-10-23T15:04:40.464Z,21.36
2022-10-23T15:07:08.885Z,21.27
2022-10-23T15:09:36.695Z,21.29
2022-10-23T15:12:05.413Z,21.05
2022-10-23T15:14:33.062Z,21.08
2022-10-23T15:17:00.390Z,21.00
2022-10-23T15:19:27.995Z,21.06
2022-10-23T15:21:55.363Z,20.88
2022-10-23T15:24:24.563Z,20.92
2022-10-23T15:26:52.047Z,20.99
2022-10-23T15:29:20.058Z,21.06
2022-10-23T15:31:58.299Z,20.99
2022-10-23T15:34:29.416Z,20.95
2022-10-23T15:36:58.185Z,21.10
2022-10-23T15:39:35.598Z,21.09
2022-10-23T15:42:06.778Z,21.04
2022-10-23T15:44:34.615Z,21.00
2022-10-23T15:47:01.993Z,21.06
2022-10-23T15:49:30.047Z,20.98
2022-10-23T15:51:57.873Z,21.04
2022-10-23T15:54:28.123Z,21.15
2022-10-23T15:56:58.389Z,21.13
2022-10-23T15:59:26.888Z,21.09
2022-10-23T16:01:55.532Z,21.10
2022-10-23T16:04:23.736Z,20.95
2022-10-23T16:06:51.028Z,21.01
2022-10-23T16:09:18.363Z,20.99
2022-10-23T16:11:47.082Z,20.99
2022-10-23T16:14:17.439Z,20.87
2022-10-23T16:16:45.093Z,20.85
2022-10-23T16:19:13.002Z,20.88
2022-10-23T16:21:41.344Z,20.95
2022-10-23T16:24:09.858Z,20.93
2022-10-23T16:26:39.035Z,20.86
2022-10-23T16:29:09.450Z,20.84
2022-10-23T16:31:36.892Z,20.86
2022-10-23T16:34:05.754Z,20.80
2022-10-23T16:36:34.845Z,20.84
2022-10-23T16:39:03.812Z,20.80
2022-10-23T16:41:31.958Z,20.80
2022-10-23T16:43:59.283Z,20.72
2022-10-23T16:46:26.997Z,20.66
2022-10-23T16:48:54.304Z,20.74
2022-10-23T16:51:26.763Z,20.68
2022-10-23T16:53:55.241Z,20.71
2022-10-23T16:56:28.686Z,20.64
2022-10-23T17:01:46.464Z,20.47
2022-10-23T17:04:13.880Z,20.57
2022-10-23T17:06:41.381Z,20.68
2022-10-23T17:09:08.701Z,20.61
2022-10-23T17:11:40.499Z,20.62
2022-10-23T17:14:15.961Z,20.64
2022-10-23T17:16:52.608Z,20.57
2022-10-23T17:19:45.222Z,20.64
2022-10-23T17:22:13.206Z,20.54
2022-10-23T17:24:44.206Z,20.50
2022-10-23T17:27:14.008Z,20.49
2022-10-23T17:29:41.298Z,20.35
2022-10-23T17:32:08.639Z,21.27
2022-10-23T17:34:36.950Z,21.73
2022-10-23T17:37:04.552Z,22.60
2022-10-23T17:39:31.813Z,22.96
2022-10-23T17:42:00.106Z,23.18
2022-10-23T17:44:29.115Z,23.34
2022-10-23T17:46:56.471Z,23.43
2022-10-23T17:49:25.406Z,23.60
2022-10-23T17:51:58.291Z,23.74
2022-10-23T17:54:28.406Z,23.95
2022-10-23T17:56:56.037Z,23.96
2022-10-23T17:59:23.935Z,24.10
2022-10-23T18:01:51.477Z,24.04
2022-10-23T18:04:20.846Z,24.06
2022-10-23T18:06:53.269Z,24.05
2022-10-23T18:09:23.057Z,24.05
2022-10-23T18:11:50.732Z,24.13
2022-10-23T18:14:21.520Z,23.99
2022-10-23T18:16:49.853Z,23.99
2022-10-23T18:19:18.714Z,23.86
2022-10-23T18:21:47.866Z,23.70
2022-10-23T18:24:16.325Z,23.62
2022-10-23T18:26:44.687Z,23.64
2022-10-23T18:29:13.556Z,23.74
2022-10-23T18:31:42.495Z,23.65
2022-10-23T18:34:25.242Z,23.59
2022-10-23T18:36:54.812Z,23.60
2022-10-23T18:39:25.897Z,23.68
2022-10-23T18:41:57.723Z,23.62
2022-10-23T18:44:29.261Z,23.61
2022-10-23T18:46:59.457Z,23.61
2022-10-23T18:49:27.881Z,23.54
2022-10-23T18:51:55.597Z,23.58
2022-10-23T18:54:23.029Z,23.54
2022-10-23T18:56:50.821Z,23.57
2022-10-23T18:59:22.249Z,23.57
2022-10-23T19:01:50.782Z,23.54
2022-10-23T19:04:20.417Z,23.50
2022-10-23T19:06:50.273Z,23.40
2022-10-23T19:09:18.221Z,23.39
2022-10-23T19:11:46.018Z,23.40
2022-10-23T19:14:14.127Z,23.35
2022-10-23T19:17:29.684Z,23.29
2022-10-23T19:20:14.945Z,23.21
2022-10-23T19:22:47.342Z,23.17
2022-10-23T19:25:25.529Z,23.14
2022-10-23T19:27:55.486Z,23.15
2022-10-23T19:30:24.984Z,23.06
2022-10-23T19:32:52.584Z,23.05
2022-10-23T19:35:22.417Z,22.97
2022-10-23T19:37:50.827Z,22.93
2022-10-23T19:40:18.609Z,22.93
2022-10-23T19:42:46.012Z,22.82
2022-10-23T19:45:16.464Z,22.78
2022-10-23T19:47:44.750Z,22.80
2022-10-23T19:50:12.297Z,22.86
2022-10-23T19:52:39.728Z,22.85
2022-10-23T19:55:08.930Z,22.78
2022-10-23T19:57:37.159Z,22.83
2022-10-23T20:00:08.276Z,22.81
2022-10-23T20:05:23.241Z,22.68
2022-10-23T20:07:51.386Z,22.63
2022-10-23T20:10:18.898Z,22.55
2022-10-23T20:12:56.356Z,22.40
2022-10-23T20:15:29.845Z,22.36
2022-10-23T20:17:58.614Z,22.22
2022-10-23T20:20:25.872Z,22.22
2022-10-23T20:22:55.296Z,22.19
2022-10-23T20:25:22.850Z,22.22
2022-10-23T20:27:52.505Z,22.20
2022-10-23T20:30:19.797Z,22.12
2022-10-23T20:32:48.477Z,22.17
2022-10-23T20:35:16.207Z,22.05
2022-10-23T20:37:43.734Z,22.02
2022-10-23T20:40:11.476Z,22.02
2022-10-23T20:42:38.810Z,21.98
2022-10-23T20:45:07.209Z,22.07
2022-10-23T20:47:34.597Z,22.01
2022-10-23T20:50:01.852Z,22.04
2022-10-23T20:52:30.144Z,22.04
2022-10-23T20:54:57.527Z,21.97
2022-10-23T20:57:24.920Z,21.97
2022-10-23T20:59:53.714Z,22.06
2022-10-23T21:02:21.909Z,22.05
2022-10-23T21:04:50.459Z,22.07
2022-10-23T21:07:18.315Z,22.18
2022-10-23T21:09:45.977Z,22.20
2022-10-23T21:12:13.333Z,22.24
2022-10-23T21:14:40.601Z,22.26
2022-10-23T21:17:08.873Z,22.11
2022-10-23T21:19:36.648Z,22.11
2022-10-23T21:22:04.018Z,22.16
2022-10-23T21:24:31.512Z,22.17
2022-10-23T21:26:58.829Z,22.14
2022-10-23T21:29:26.101Z,22.02
2022-10-23T21:32:01.489Z,22.14
2022-10-23T21:34:30.255Z,22.10
2022-10-23T21:37:14.740Z,22.18
2022-10-23T21:39:46.348Z,22.11
2022-10-23T21:42:15.275Z,22.14
2022-10-23T21:44:42.864Z,22.23
2022-10-23T21:47:10.257Z,22.31
2022-10-23T21:49:37.837Z,22.37
2022-10-23T21:52:05.450Z,22.39
2022-10-23T21:54:32.956Z,22.43
2022-10-23T21:57:00.247Z,22.44
2022-10-23T21:59:30.274Z,22.41
2022-10-23T22:01:59.405Z,22.40
2022-10-23T22:04:26.799Z,22.28
2022-10-23T22:06:54.057Z,22.23
2022-10-23T22:09:22.835Z,22.26
2022-10-23T22:11:53.275Z,22.18
2022-10-23T22:14:22.200Z,22.18
2022-10-23T22:16:49.914Z,22.22
2022-10-23T22:19:21.025Z,22.18
2022-10-23T22:21:50.315Z,22.02
2022-10-23T22:24:18.264Z,22.06
2022-10-23T22:26:54.499Z,22.03
2022-10-23T22:29:29.451Z,22.09
2022-10-23T22:31:58.307Z,22.12
2022-10-23T22:37:17.524Z,22.08
2022-10-23T22:39:44.786Z,21.98
2022-10-23T22:42:12.265Z,21.93
2022-10-23T22:44:40.411Z,22.01
2022-10-23T22:47:07.804Z,22.02
2022-10-23T22:49:35.150Z,21.98
2022-10-23T22:52:02.415Z,22.02
2022-10-23T22:54:31.403Z,22.03
2022-10-23T22:56:58.883Z,22.04
2022-10-23T22:59:26.979Z,22.01
2022-10-23T23:01:54.551Z,22.05
2022-10-23T23:04:38.573Z,22.05
2022-10-23T23:07:12.577Z,22.04
2022-10-23T23:09:45.050Z,22.10
2022-10-23T23:12:16.007Z,22.06
2022-10-23T23:14:43.645Z,22.10
2022-10-23T23:17:12.279Z,22.16
2022-10-23T23:19:39.709Z,22.19
2022-10-23T23:22:07.087Z,22.20
2022-10-23T23:24:34.626Z,22.19
2022-10-23T23:27:02.216Z,22.25
2022-10-23T23:29:29.683Z,22.18
2022-10-23T23:31:57.229Z,22.22
2022-10-23T23:34:24.661Z,22.10
2022-10-23T23:36:52.040Z,22.18
2022-10-23T23:39:19.804Z,22.19
2022-10-23T23:41:47.101Z,22.22
2022-10-23T23:44:14.365Z,22.29
2022-10-23T23:46:41.653Z,22.29
2022-10-23T23:49:08.932Z,22.28
2022-10-23T23:51:37.191Z,22.29
2022-10-23T23:54:04.537Z,22.29
2022-10-23T23:56:32.024Z,22.37
2022-10-23T23:58:59.311Z,22.33
